地図

経路データ

SID SEASON NUMBER BASIN SUBBASIN NAME ISO_TIME NATURE LAT LON WMO_WIND WMO_PRES WMO_AGENCY TRACK_TYPE DIST2LAND LANDFALL IFLAG USA_AGENCY USA_ATCF_ID USA_LAT USA_LON USA_RECORD USA_STATUS USA_WIND USA_PRES USA_SSHS USA_R34_NE USA_R34_SE USA_R34_SW USA_R34_NW USA_R50_NE USA_R50_SE USA_R50_SW USA_R50_NW USA_R64_NE USA_R64_SE USA_R64_SW USA_R64_NW USA_POCI USA_ROCI USA_RMW USA_EYE TOKYO_LAT TOKYO_LON TOKYO_GRADE TOKYO_WIND TOKYO_PRES TOKYO_R50_DIR TOKYO_R50_LONG TOKYO_R50_SHORT TOKYO_R30_DIR TOKYO_R30_LONG TOKYO_R30_SHORT TOKYO_LAND CMA_LAT CMA_LON CMA_CAT CMA_WIND CMA_PRES HKO_LAT HKO_LON HKO_CAT HKO_WIND HKO_PRES NEWDELHI_LAT NEWDELHI_LON NEWDELHI_GRADE NEWDELHI_WIND NEWDELHI_PRES NEWDELHI_CI NEWDELHI_DP NEWDELHI_POCI REUNION_LAT REUNION_LON REUNION_TYPE REUNION_WIND REUNION_PRES REUNION_TNUM REUNION_CI REUNION_RMW REUNION_R34_NE REUNION_R34_SE REUNION_R34_SW REUNION_R34_NW REUNION_R50_NE REUNION_R50_SE REUNION_R50_SW REUNION_R50_NW REUNION_R64_NE REUNION_R64_SE REUNION_R64_SW REUNION_R64_NW BOM_LAT BOM_LON BOM_TYPE BOM_WIND BOM_PRES BOM_TNUM BOM_CI BOM_RMW BOM_R34_NE BOM_R34_SE BOM_R34_SW BOM_R34_NW BOM_R50_NE BOM_R50_SE BOM_R50_SW BOM_R50_NW BOM_R64_NE BOM_R64_SE BOM_R64_SW BOM_R64_NW BOM_ROCI BOM_POCI BOM_EYE BOM_POS_METHOD BOM_PRES_METHOD NADI_LAT NADI_LON NADI_CAT NADI_WIND NADI_PRES WELLINGTON_LAT WELLINGTON_LON WELLINGTON_WIND WELLINGTON_PRES DS824_LAT DS824_LON DS824_STAGE DS824_WIND DS824_PRES TD9636_LAT TD9636_LON TD9636_STAGE TD9636_WIND TD9636_PRES TD9635_LAT TD9635_LON TD9635_WIND TD9635_PRES TD9635_ROCI NEUMANN_LAT NEUMANN_LON NEUMANN_CLASS NEUMANN_WIND NEUMANN_PRES MLC_LAT MLC_LON MLC_CLASS MLC_WIND MLC_PRES USA_GUST BOM_GUST BOM_GUST_PER REUNION_GUST REUNION_GUST_PER USA_SEAHGT USA_SEARAD_NE USA_SEARAD_SE USA_SEARAD_SW USA_SEARAD_NW STORM_SPEED STORM_DIR
1954248N20253 1954 56 EP MM NOT_NAMED 1954-09-05 00:00:00 TS 19.7000 -106.900 45 hurdat_epa main 147 147 O________O____ hurdat_epa EP061954 19.7000 -106.900 TS 45 0 19.7000 -106.900 TC 45 1 273
1954248N20253 1954 56 EP MM NOT_NAMED 1954-09-05 03:00:00 TS 19.7026 -106.960 main 156 156 P________P____ EP061954 19.7026 -106.960 TS 45 0 19.7026 -106.960 TC 45 1 270
1954248N20253 1954 56 EP MM NOT_NAMED 1954-09-05 06:00:00 TS 19.7000 -107.000 45 hurdat_epa main 156 156 O________O____ hurdat_epa EP061954 19.7000 -107.000 TS 45 0 19.7000 -107.000 TC 45 1 261
1954248N20253 1954 56 EP MM NOT_NAMED 1954-09-05 09:00:00 TS 19.6923 -107.033 main 156 156 P________P____ EP061954 19.6923 -107.033 TS 45 0 19.6923 -107.033 TC 45 2 270
1954248N20253 1954 56 EP MM NOT_NAMED 1954-09-05 12:00:00 TS 19.7000 -107.200 45 hurdat_epa main 175 175 O________OO___ hurdat_epa EP061954 19.7000 -107.200 TS 45 0 19.7000 -107.200 TC 45 19.7000 -107.200 7 6 275
1954248N20253 1954 56 EP MM NOT_NAMED 1954-09-05 15:00:00 TS 19.7426 -107.652 main 223 219 P________PP___ EP061954 19.7352 -107.640 TS 45 0 19.7352 -107.640 TC 45 19.8021 -107.748 7 10 277
1954248N20253 1954 56 EP MM NOT_NAMED 1954-09-05 18:00:00 TS 19.8146 -108.212 45 hurdat_epa main 269 269 O________OP___ hurdat_epa EP061954 19.8000 -108.200 TS 45 0 19.8000 -108.200 TC 45 19.8926 -108.278 7 10 280
1954248N20253 1954 56 EP MM NOT_NAMED 1954-09-05 21:00:00 TS 19.9123 -108.726 main 318 318 P________PP___ EP061954 19.9000 -108.715 TS 45 0 19.9000 -108.715 TC 45 19.9617 -108.768 7 9 281
1954248N20253 1954 56 EP MM NOT_NAMED 1954-09-06 00:00:00 TS 20.0000 -109.200 45 hurdat_epa main 330 324 O________OO___ hurdat_epa EP061954 20.0000 -109.200 TS 45 0 20.0000 -109.200 TC 45 20.0000 -109.200 7 8 279
1954248N20253 1954 56 EP MM NOT_NAMED 1954-09-06 03:00:00 TS 20.0415 -109.605 main 324 313 P________PP___ EP061954 20.0498 -109.615 TS 45 0 20.0498 -109.615 TC 45 20.0081 -109.566 7 7 277
1954248N20253 1954 56 EP MM NOT_NAMED 1954-09-06 06:00:00 TS 20.0854 -109.983 45 hurdat_epa main 313 313 O________OP___ hurdat_epa EP061954 20.1000 -110.000 TS 45 0 20.1000 -110.000 TC 45 20.0271 -109.914 7 7 279
1954248N20253 1954 56 EP MM NOT_NAMED 1954-09-06 09:00:00 TS 20.1450 -110.327 main 314 299 P________PP___ EP061954 20.1543 -110.333 TS 45 0 20.1543 -110.333 TC 45 20.1077 -110.305 7 8 286
1954248N20253 1954 56 EP MM NOT_NAMED 1954-09-06 12:00:00 TS 20.3000 -110.800 45 hurdat_epa main 302 298 O________OO___ hurdat_epa EP061954 20.3000 -110.800 TS 45 0 20.3000 -110.800 TC 45 20.3000 -110.800 7 13 290
1954248N20253 1954 56 EP MM NOT_NAMED 1954-09-06 15:00:00 TS 20.5826 -111.590 main 305 305 P________PP___ EP061954 20.5756 -111.598 TS 45 0 20.5756 -111.598 TC 45 20.6104 -111.560 7 17 294
1954248N20253 1954 56 EP MM NOT_NAMED 1954-09-06 18:00:00 TS 21.0075 -112.484 45 hurdat_epa main 334 334 O________OP___ hurdat_epa EP061954 21.0000 -112.500 TS 45 0 21.0000 -112.500 TC 45 21.0373 -112.419 7 19 301
1954248N20253 1954 56 EP MM NOT_NAMED 1954-09-06 21:00:00 TS 21.5341 -113.320 main 367 339 P________PP___ EP061954 21.5252 -113.332 TS 45 0 21.5252 -113.332 TC 45 21.5700 -113.269 7 19 310
1954248N20253 1954 56 EP MM NOT_NAMED 1954-09-07 00:00:00 TS 22.2000 -114.000 45 hurdat_epa main 339 300 O________OO___ hurdat_epa EP061954 22.2000 -114.000 TS 45 0 22.2000 -114.000 TC 45 22.2000 -114.000 7 18 327
1954248N20253 1954 56 EP MM NOT_NAMED 1954-09-07 03:00:00 TS 23.0225 -114.377 main 300 267 P________PP___ EP061954 23.0268 -114.361 TS 45 0 23.0268 -114.361 TC 45 23.0052 -114.442 7 18 341
1954248N20253 1954 56 EP MM NOT_NAMED 1954-09-07 06:00:00 TS 23.8973 -114.631 45 hurdat_epa main 262 258 O________OP___ hurdat_epa EP061954 23.9000 -114.600 TS 45 0 23.9000 -114.600 TC 45 23.8864 -114.756 7 18 343
1954248N20253 1954 56 EP MM NOT_NAMED 1954-09-07 09:00:00 TS 24.7428 -114.945 main 258 219 P________PP___ EP061954 24.7473 -114.927 TS 45 0 24.7473 -114.927 TC 45 24.7246 -115.017 7 16 338
1954248N20253 1954 56 EP MM NOT_NAMED 1954-09-07 12:00:00 TS 25.4000 -115.300 45 hurdat_epa main 219 205 O________OO___ hurdat_epa EP061954 25.4000 -115.300 TS 45 0 25.4000 -115.300 TC 45 25.4000 -115.300 7 12 324
1954248N20253 1954 56 EP MM NOT_NAMED 1954-09-07 15:00:00 TS 25.7062 -115.733 main 211 211 P________PP___ EP061954 25.6900 -115.736 TS 45 0 25.6900 -115.736 TC 45 25.7710 -115.724 7 9 298
1954248N20253 1954 56 EP MM NOT_NAMED 1954-09-07 18:00:00 TS 25.8335 -116.196 45 hurdat_epa main 237 237 O________OP___ hurdat_epa EP061954 25.8000 -116.200 TS 45 0 25.8000 -116.200 TC 45 25.9676 -116.180 7 9 288
1954248N20253 1954 56 EP MM NOT_NAMED 1954-09-07 21:00:00 TS 25.9830 -116.655 main 253 253 P________PP___ EP061954 25.9649 -116.658 TS 45 0 25.9649 -116.658 TC 45 26.0554 -116.646 7 9 288
1954248N20253 1954 56 EP MM NOT_NAMED 1954-09-08 00:00:00 TS 26.1000 -117.100 45 hurdat_epa main 274 274 O________OO___ hurdat_epa EP061954 26.1000 -117.100 TS 45 0 26.1000 -117.100 TC 45 26.1000 -117.100 7 8 286
1954248N20253 1954 56 EP MM NOT_NAMED 1954-09-08 03:00:00 TS 26.2030 -117.512 main 298 298 P________PP___ EP061954 26.2148 -117.508 TS 45 0 26.2148 -117.508 TC 45 26.1555 -117.527 7 7 284
1954248N20253 1954 56 EP MM NOT_NAMED 1954-09-08 06:00:00 TS 26.2856 -117.906 45 hurdat_epa main 326 326 O________OP___ hurdat_epa EP061954 26.3000 -117.900 TS 45 0 26.3000 -117.900 TC 45 26.2279 -117.931 7 7 282
1954248N20253 1954 56 EP MM NOT_NAMED 1954-09-08 09:00:00 TS 26.3485 -118.302 main 362 357 P________PP___ EP061954 26.3578 -118.297 TS 45 0 26.3578 -118.297 TC 45 26.3114 -118.319 7 7 279
1954248N20253 1954 56 EP MM NOT_NAMED 1954-09-08 12:00:00 TS 26.4000 -118.700 45 hurdat_epa main 393 O________OO___ hurdat_epa EP061954 26.4000 -118.700 TS 45 0 26.4000 -118.700 TC 45 26.4000 -118.700 7 7 278

IBTrACS Databaseについて

本データベースは、米国NOAAが公開する1842年以降の世界の熱帯低気圧のベストトラックデータアーカイブInternational Best Track Archive for Climate Stewardship (IBTrACS)を、ウェブで閲覧しやすい形式に変換したものです。

最終更新日:2021-11-26